Terminal Aerodrome Forecast
Issued by NWS Corpus Christi, TX

Home | Current Version | Previous Version | Text Only | Print | Product List | Glossary On
Versions: 1 2 3 4 5 6 7 8 9 10 11 12 13 14 15 16
000
FTUS44 KCRP 012335
TAFVCT
TAF
KVCT 012335Z 0200/0224 17004KT P6SM BKN150
     FM020800 10004KT 5SM BR SCT020 BKN150
      TEMPO 0210/0213 2SM BR BKN020
     FM021400 14012KT P6SM SCT020 BKN200
     FM022000 15014G18KT P6SM SCT035 BKN250=

USA.gov is the U.S. government's official web portal to all federal, state and local government web resources and services.